Atmore, Alabama
Current Conditions -  °F | °C
As of 8:30 PM on Saturday 22 Nov 2014 (Local Time) from KNSE Reporting Station
Overcast Overcast  
Wind Chill: 59°   Ceiling: 500
Heat Index: 59°   Visibility: 10mi
Dew Point: 58°   Wind: 6mph
Humidity: 96%   Direction: 50°NE
Pressure: 30.08"   Gusts: NA
Location:  31.03°N, 87.49°W
Report Text: KNSE 230230Z AUTO 05005KT 10SM OVC005 15/14 A3008 RMK AO2 RAE09 CIG 003V008 P0000 T01500144 $
Loading
Personal Weather Stations






























Interactive Weather Map New forecast layout! Learn more

10-Day Weather Forecast

Advertisements
Track Severe Weather on mobile